sensor_id;sensor_type;location;lat;lon;timestamp;pressure;altitude;pressure_sealevel;temperature;humidity
30636;BME280;17400;52.392;9.750;2022-10-16T00:01:35;100414.00;;;15.81;100.00
30636;BME280;17400;52.392;9.750;2022-10-16T00:04:03;100427.50;;;15.76;100.00
30636;BME280;17400;52.392;9.750;2022-10-16T00:06:31;100423.59;;;15.72;100.00
30636;BME280;17400;52.392;9.750;2022-10-16T00:09:00;100431.19;;;15.70;100.00
30636;BME280;17400;52.392;9.750;2022-10-16T00:11:30;100434.50;;;15.60;100.00
30636;BME280;17400;52.392;9.750;2022-10-16T00:14:01;100433.56;;;15.55;100.00
30636;BME280;17400;52.392;9.750;2022-10-16T00:16:28;100433.22;;;15.51;100.00
30636;BME280;17400;52.392;9.750;2022-10-16T00:18:57;100437.38;;;15.54;100.00
30636;BME280;17400;52.392;9.750;2022-10-16T00:21:26;100442.44;;;15.50;100.00
30636;BME280;17400;52.392;9.750;2022-10-16T00:23:56;100441.63;;;15.49;100.00
30636;BME280;17400;52.392;9.750;2022-10-16T00:26:28;100443.88;;;15.41;100.00
30636;BME280;17400;52.392;9.750;2022-10-16T00:28:56;100442.00;;;15.41;100.00
30636;BME280;17400;52.392;9.750;2022-10-16T00:31:26;100446.13;;;15.44;100.00
30636;BME280;17400;52.392;9.750;2022-10-16T00:33:54;100451.38;;;15.45;100.00
30636;BME280;17400;52.392;9.750;2022-10-16T00:36:23;100453.47;;;15.43;100.00
30636;BME280;17400;52.392;9.750;2022-10-16T00:38:52;100447.22;;;15.43;100.00
30636;BME280;17400;52.392;9.750;2022-10-16T00:41:22;100453.47;;;15.43;100.00
30636;BME280;17400;52.392;9.750;2022-10-16T00:43:54;100456.56;;;15.47;100.00
30636;BME280;17400;52.392;9.750;2022-10-16T00:46:23;100462.28;;;15.45;100.00
30636;BME280;17400;52.392;9.750;2022-10-16T00:48:54;100453.13;;;15.40;100.00
30636;BME280;17400;52.392;9.750;2022-10-16T00:51:31;100455.03;;;15.39;100.00
30636;BME280;17400;52.392;9.750;2022-10-16T00:53:59;100449.09;;;15.42;100.00
30636;BME280;17400;52.392;9.750;2022-10-16T00:56:27;100460.47;;;15.39;100.00
30636;BME280;17400;52.392;9.750;2022-10-16T00:58:57;100456.09;;;15.38;100.00
30636;BME280;17400;52.392;9.750;2022-10-16T01:01:26;100458.22;;;15.36;100.00
30636;BME280;17400;52.392;9.750;2022-10-16T01:03:53;100464.75;;;15.35;100.00
30636;BME280;17400;52.392;9.750;2022-10-16T01:06:23;100464.13;;;15.33;100.00
30636;BME280;17400;52.392;9.750;2022-10-16T01:09:03;100456.09;;;15.38;100.00
30636;BME280;17400;52.392;9.750;2022-10-16T01:11:38;100462.03;;;15.35;100.00
30636;BME280;17400;52.392;9.750;2022-10-16T01:14:15;100457.38;;;15.36;100.00
30636;BME280;17400;52.392;9.750;2022-10-16T01:16:49;100452.03;;;15.29;100.00
30636;BME280;17400;52.392;9.750;2022-10-16T01:19:26;100455.38;;;15.31;100.00
30636;BME280;17400;52.392;9.750;2022-10-16T01:21:59;100452.41;;;15.32;100.00
30636;BME280;17400;52.392;9.750;2022-10-16T01:24:32;100444.47;;;15.31;100.00
30636;BME280;17400;52.392;9.750;2022-10-16T01:27:12;100461.28;;;15.28;100.00
30636;BME280;17400;52.392;9.750;2022-10-16T01:29:46;100469.25;;;15.29;100.00
30636;BME280;17400;52.392;9.750;2022-10-16T01:32:18;100476.13;;;15.32;100.00
30636;BME280;17400;52.392;9.750;2022-10-16T01:34:50;100477.19;;;15.31;100.00
30636;BME280;17400;52.392;9.750;2022-10-16T01:37:25;100470.88;;;15.30;100.00
30636;BME280;17400;52.392;9.750;2022-10-16T01:39:59;100471.13;;;15.29;100.00
30636;BME280;17400;52.392;9.750;2022-10-16T01:42:33;100482.03;;;15.29;100.00
30636;BME280;17400;52.392;9.750;2022-10-16T01:45:04;100478.88;;;15.32;100.00
30636;BME280;17400;52.392;9.750;2022-10-16T01:47:35;100482.66;;;15.31;100.00
30636;BME280;17400;52.392;9.750;2022-10-16T01:50:04;100489.41;;;15.28;100.00
30636;BME280;17400;52.392;9.750;2022-10-16T01:52:36;100489.97;;;15.30;100.00
30636;BME280;17400;52.392;9.750;2022-10-16T01:55:06;100483.69;;;15.30;100.00
30636;BME280;17400;52.392;9.750;2022-10-16T01:57:38;100484.19;;;15.27;100.00
30636;BME280;17400;52.392;9.750;2022-10-16T02:00:10;100485.25;;;15.26;100.00
30636;BME280;17400;52.392;9.750;2022-10-16T02:02:42;100488.66;;;15.21;100.00
30636;BME280;17400;52.392;9.750;2022-10-16T02:05:17;100475.50;;;15.18;100.00
30636;BME280;17400;52.392;9.750;2022-10-16T02:07:47;100484.97;;;15.15;100.00
30636;BME280;17400;52.392;9.750;2022-10-16T02:10:15;100487.69;;;15.15;100.00
30636;BME280;17400;52.392;9.750;2022-10-16T02:12:48;100489.84;;;15.13;100.00
30636;BME280;17400;52.392;9.750;2022-10-16T02:15:17;100496.81;;;15.09;100.00
30636;BME280;17400;52.392;9.750;2022-10-16T02:17:45;100495.75;;;15.10;100.00
30636;BME280;17400;52.392;9.750;2022-10-16T02:20:13;100501.81;;;15.12;100.00
30636;BME280;17400;52.392;9.750;2022-10-16T02:22:44;100500.75;;;15.13;100.00
30636;BME280;17400;52.392;9.750;2022-10-16T02:25:17;100497.41;;;15.11;100.00
30636;BME280;17400;52.392;9.750;2022-10-16T02:27:54;100502.38;;;15.14;100.00
30636;BME280;17400;52.392;9.750;2022-10-16T02:30:27;100507.84;;;15.14;100.00
30636;BME280;17400;52.392;9.750;2022-10-16T02:32:57;100516.03;;;15.14;100.00
30636;BME280;17400;52.392;9.750;2022-10-16T02:35:27;100526.94;;;15.14;100.00
30636;BME280;17400;52.392;9.750;2022-10-16T02:37:56;100507.25;;;15.12;100.00
30636;BME280;17400;52.392;9.750;2022-10-16T02:40:25;100508.47;;;15.16;100.00
30636;BME280;17400;52.392;9.750;2022-10-16T02:42:55;100497.06;;;15.20;100.00
30636;BME280;17400;52.392;9.750;2022-10-16T02:45:23;100499.56;;;15.21;100.00
30636;BME280;17400;52.392;9.750;2022-10-16T02:47:51;100498.25;;;15.24;100.00
30636;BME280;17400;52.392;9.750;2022-10-16T02:50:19;100503.72;;;15.24;100.00
30636;BME280;17400;52.392;9.750;2022-10-16T02:52:47;100505.38;;;15.25;100.00
30636;BME280;17400;52.392;9.750;2022-10-16T02:55:14;100502.66;;;15.25;100.00
30636;BME280;17400;52.392;9.750;2022-10-16T02:57:42;100508.34;;;15.23;100.00
30636;BME280;17400;52.392;9.750;2022-10-16T03:00:14;100514.63;;;15.24;100.00
30636;BME280;17400;52.392;9.750;2022-10-16T03:02:42;100509.16;;;15.24;100.00
30636;BME280;17400;52.392;9.750;2022-10-16T03:05:10;100508.13;;;15.25;100.00
30636;BME280;17400;52.392;9.750;2022-10-16T03:07:38;100510.84;;;15.25;100.00
30636;BME280;17400;52.392;9.750;2022-10-16T03:10:07;100504.66;;;15.18;100.00
30636;BME280;17400;52.392;9.750;2022-10-16T03:12:34;100506.31;;;15.19;100.00
30636;BME280;17400;52.392;9.750;2022-10-16T03:15:03;100504.06;;;15.15;100.00
30636;BME280;17400;52.392;9.750;2022-10-16T03:17:32;100514.38;;;15.13;100.00
30636;BME280;17400;52.392;9.750;2022-10-16T03:20:01;100519.84;;;15.13;100.00
30636;BME280;17400;52.392;9.750;2022-10-16T03:22:29;100525.28;;;15.13;100.00
30636;BME280;17400;52.392;9.750;2022-10-16T03:24:56;100521.94;;;15.11;100.00
30636;BME280;17400;52.392;9.750;2022-10-16T03:27:24;100519.22;;;15.11;100.00
30636;BME280;17400;52.392;9.750;2022-10-16T03:29:52;100519.47;;;15.10;100.00
30636;BME280;17400;52.392;9.750;2022-10-16T03:32:20;100511.88;;;15.12;100.00
30636;BME280;17400;52.392;9.750;2022-10-16T03:34:49;100508.94;;;15.13;100.00
30636;BME280;17400;52.392;9.750;2022-10-16T03:37:17;100513.06;;;15.16;100.00
30636;BME280;17400;52.392;9.750;2022-10-16T03:39:45;100509.03;;;15.19;100.00
30636;BME280;17400;52.392;9.750;2022-10-16T03:42:13;100509.03;;;15.19;100.00
30636;BME280;17400;52.392;9.750;2022-10-16T03:44:40;100514.50;;;15.19;100.00
30636;BME280;17400;52.392;9.750;2022-10-16T03:47:08;100512.84;;;15.18;100.00
30636;BME280;17400;52.392;9.750;2022-10-16T03:49:36;100504.66;;;15.18;100.00
30636;BME280;17400;52.392;9.750;2022-10-16T03:52:05;100514.38;;;15.13;100.00
30636;BME280;17400;52.392;9.750;2022-10-16T03:54:32;100515.75;;;15.04;100.00
30636;BME280;17400;52.392;9.750;2022-10-16T03:57:00;100511.78;;;14.88;100.00
30636;BME280;17400;52.392;9.750;2022-10-16T03:59:28;100513.53;;;14.82;100.00
30636;BME280;17400;52.392;9.750;2022-10-16T04:01:55;100523.47;;;14.77;100.00
30636;BME280;17400;52.392;9.750;2022-10-16T04:04:23;100516.22;;;14.71;100.00
30636;BME280;17400;52.392;9.750;2022-10-16T04:06:52;100522.03;;;14.74;100.00
30636;BME280;17400;52.392;9.750;2022-10-16T04:09:20;100516.81;;;14.73;100.00
30636;BME280;17400;52.392;9.750;2022-10-16T04:11:48;100520.97;;;14.75;100.00
30636;BME280;17400;52.392;9.750;2022-10-16T04:14:16;100523.72;;;14.75;100.00
30636;BME280;17400;52.392;9.750;2022-10-16T04:16:44;100534.59;;;14.75;100.00
30636;BME280;17400;52.392;9.750;2022-10-16T04:19:11;100547.84;;;14.72;100.00
30636;BME280;17400;52.392;9.750;2022-10-16T04:21:39;100545.50;;;14.75;100.00
30636;BME280;17400;52.392;9.750;2022-10-16T04:24:07;100551.78;;;14.76;100.00
30636;BME280;17400;52.392;9.750;2022-10-16T04:26:36;100542.78;;;14.75;100.00
30636;BME280;17400;52.392;9.750;2022-10-16T04:29:04;100539.44;;;14.73;100.00
30636;BME280;17400;52.392;9.750;2022-10-16T04:31:32;100545.34;;;14.70;100.00
30636;BME280;17400;52.392;9.750;2022-10-16T04:34:00;100544.50;;;14.70;100.00
30636;BME280;17400;52.392;9.750;2022-10-16T04:36:27;100551.41;;;14.72;100.00
30636;BME280;17400;52.392;9.750;2022-10-16T04:38:55;100560.19;;;14.74;100.00
30636;BME280;17400;52.392;9.750;2022-10-16T04:41:23;100559.13;;;14.75;100.00
30636;BME280;17400;52.392;9.750;2022-10-16T04:43:52;100547.63;;;14.73;100.00
30636;BME280;17400;52.392;9.750;2022-10-16T04:46:19;100549.28;;;14.74;100.00
30636;BME280;17400;52.392;9.750;2022-10-16T04:48:47;100555.78;;;14.73;100.00
30636;BME280;17400;52.392;9.750;2022-10-16T04:51:15;100543.00;;;14.74;100.00
30636;BME280;17400;52.392;9.750;2022-10-16T04:53:42;100538.16;;;14.76;100.00
30636;BME280;17400;52.392;9.750;2022-10-16T04:56:10;100556.41;;;14.75;100.00
30636;BME280;17400;52.392;9.750;2022-10-16T04:58:38;100557.59;;;14.79;100.00
30636;BME280;17400;52.392;9.750;2022-10-16T05:01:07;100548.59;;;14.79;100.00
30636;BME280;17400;52.392;9.750;2022-10-16T05:03:34;100555.94;;;14.78;100.00
30636;BME280;17400;52.392;9.750;2022-10-16T05:06:05;100560.78;;;14.76;100.00
30636;BME280;17400;52.392;9.750;2022-10-16T05:08:32;100561.63;;;14.77;100.00
30636;BME280;17400;52.392;9.750;2022-10-16T05:11:00;100574.19;;;14.78;100.00
30636;BME280;17400;52.392;9.750;2022-10-16T05:13:28;100572.75;;;14.75;100.00
30636;BME280;17400;52.392;9.750;2022-10-16T05:15:55;100579.09;;;14.69;100.00
30636;BME280;17400;52.392;9.750;2022-10-16T05:18:25;100577.06;;;14.64;100.00
30636;BME280;17400;52.392;9.750;2022-10-16T05:20:52;100574.53;;;14.63;100.00
30636;BME280;17400;52.392;9.750;2022-10-16T05:23:20;100574.13;;;14.66;100.00
30636;BME280;17400;52.392;9.750;2022-10-16T05:25:58;100586.06;;;14.65;100.00
30636;BME280;17400;52.392;9.750;2022-10-16T05:28:27;100593.00;;;14.61;100.00
30636;BME280;17400;52.392;9.750;2022-10-16T05:30:55;100587.13;;;14.64;100.00
30636;BME280;17400;52.392;9.750;2022-10-16T05:33:25;100597.19;;;14.63;100.00
30636;BME280;17400;52.392;9.750;2022-10-16T05:35:53;100601.38;;;14.66;100.00
30636;BME280;17400;52.392;9.750;2022-10-16T05:38:20;100604.69;;;14.68;100.00
30636;BME280;17400;52.392;9.750;2022-10-16T05:40:52;100596.28;;;14.70;100.00
30636;BME280;17400;52.392;9.750;2022-10-16T05:43:20;100600.09;;;14.69;100.00
30636;BME280;17400;52.392;9.750;2022-10-16T05:45:53;100602.19;;;14.66;100.00
30636;BME280;17400;52.392;9.750;2022-10-16T05:48:21;100596.28;;;14.70;100.00
30636;BME280;17400;52.392;9.750;2022-10-16T05:50:57;100587.03;;;14.71;100.00
30636;BME280;17400;52.392;9.750;2022-10-16T05:53:26;100594.84;;;14.67;100.00
30636;BME280;17400;52.392;9.750;2022-10-16T05:55:55;100597.34;;;14.69;100.00
30636;BME280;17400;52.392;9.750;2022-10-16T05:58:24;100597.72;;;14.72;100.00
30636;BME280;17400;52.392;9.750;2022-10-16T06:00:53;100602.97;;;14.74;100.00
30636;BME280;17400;52.392;9.750;2022-10-16T06:03:21;100608.41;;;14.74;100.00
30636;BME280;17400;52.392;9.750;2022-10-16T06:05:49;100612.78;;;14.75;100.00
30636;BME280;17400;52.392;9.750;2022-10-16T06:08:19;100605.44;;;14.75;100.00
30636;BME280;17400;52.392;9.750;2022-10-16T06:10:47;100603.31;;;14.77;100.00
30636;BME280;17400;52.392;9.750;2022-10-16T06:13:15;100607.31;;;14.75;100.00
30636;BME280;17400;52.392;9.750;2022-10-16T06:15:43;100612.34;;;14.78;100.00
30636;BME280;17400;52.392;9.750;2022-10-16T06:18:10;100612.53;;;14.76;100.00
30636;BME280;17400;52.392;9.750;2022-10-16T06:20:38;100617.25;;;14.69;100.00
30636;BME280;17400;52.392;9.750;2022-10-16T06:23:06;100612.31;;;14.59;100.00
30636;BME280;17400;52.392;9.750;2022-10-16T06:25:35;100625.47;;;14.62;100.00
30636;BME280;17400;52.392;9.750;2022-10-16T06:28:03;100631.00;;;14.56;100.00
30636;BME280;17400;52.392;9.750;2022-10-16T06:30:30;100636.16;;;14.64;100.00
30636;BME280;17400;52.392;9.750;2022-10-16T06:32:58;100643.09;;;14.60;100.00
30636;BME280;17400;52.392;9.750;2022-10-16T06:35:26;100648.31;;;14.61;100.00
30636;BME280;17400;52.392;9.750;2022-10-16T06:37:55;100643.44;;;14.70;100.00
30636;BME280;17400;52.392;9.750;2022-10-16T06:40:23;100646.31;;;14.75;100.00
30636;BME280;17400;52.392;9.750;2022-10-16T06:42:54;100644.28;;;14.71;100.00
30636;BME280;17400;52.392;9.750;2022-10-16T06:45:22;100642.53;;;14.76;100.00
30636;BME280;17400;52.392;9.750;2022-10-16T06:47:49;100656.16;;;14.76;100.00
30636;BME280;17400;52.392;9.750;2022-10-16T06:50:17;100659.88;;;14.82;100.00
30636;BME280;17400;52.392;9.750;2022-10-16T06:52:45;100662.97;;;14.86;100.00
30636;BME280;17400;52.392;9.750;2022-10-16T06:55:13;100663.97;;;14.91;100.00
30636;BME280;17400;52.392;9.750;2022-10-16T06:57:41;100668.38;;;14.92;100.00
30636;BME280;17400;52.392;9.750;2022-10-16T07:00:10;100663.19;;;15.03;100.00
30636;BME280;17400;52.392;9.750;2022-10-16T07:02:38;100664.72;;;14.98;100.00
30636;BME280;17400;52.392;9.750;2022-10-16T07:05:07;100668.88;;;15.01;100.00
30636;BME280;17400;52.392;9.750;2022-10-16T07:07:34;100668.06;;;15.01;100.00
30636;BME280;17400;52.392;9.750;2022-10-16T07:10:03;100662.75;;;15.06;100.00
30636;BME280;17400;52.392;9.750;2022-10-16T07:12:30;100668.22;;;15.06;100.00
30636;BME280;17400;52.392;9.750;2022-10-16T07:14:58;100672.97;;;15.10;100.00
30636;BME280;17400;52.392;9.750;2022-10-16T07:17:27;100678.19;;;15.12;100.00
30636;BME280;17400;52.392;9.750;2022-10-16T07:19:55;100684.31;;;15.07;100.00
30636;BME280;17400;52.392;9.750;2022-10-16T07:22:22;100691.59;;;15.13;100.00
30636;BME280;17400;52.392;9.750;2022-10-16T07:24:50;100687.34;;;15.18;100.00
30636;BME280;17400;52.392;9.750;2022-10-16T07:27:18;100699.72;;;15.20;100.00
30636;BME280;17400;52.392;9.750;2022-10-16T07:29:48;100699.16;;;15.30;100.00
30636;BME280;17400;52.392;9.750;2022-10-16T07:32:16;100689.22;;;15.36;100.00
30636;BME280;17400;52.392;9.750;2022-10-16T07:34:45;100698.69;;;15.33;100.00
30636;BME280;17400;52.392;9.750;2022-10-16T07:37:13;100709.06;;;15.43;100.00
30636;BME280;17400;52.392;9.750;2022-10-16T07:39:40;100712.53;;;15.50;100.00
30636;BME280;17400;52.392;9.750;2022-10-16T07:42:08;100716.13;;;15.51;100.00
30636;BME280;17400;52.392;9.750;2022-10-16T07:44:36;100708.34;;;15.66;100.00
30636;BME280;17400;52.392;9.750;2022-10-16T07:47:04;100720.44;;;15.70;100.00
30636;BME280;17400;52.392;9.750;2022-10-16T07:49:31;100732.56;;;15.74;100.00
30636;BME280;17400;52.392;9.750;2022-10-16T07:52:00;100736.47;;;15.85;100.00
30636;BME280;17400;52.392;9.750;2022-10-16T07:54:28;100740.16;;;15.72;100.00
30636;BME280;17400;52.392;9.750;2022-10-16T07:56:56;100738.50;;;15.71;100.00
30636;BME280;17400;52.392;9.750;2022-10-16T07:59:23;100749.25;;;15.85;100.00
30636;BME280;17400;52.392;9.750;2022-10-16T08:01:51;100743.78;;;15.85;100.00
30636;BME280;17400;52.392;9.750;2022-10-16T08:04:19;100740.00;;;15.86;100.00
30636;BME280;17400;52.392;9.750;2022-10-16T08:06:47;100754.53;;;15.79;100.00
30636;BME280;17400;52.392;9.750;2022-10-16T08:09:17;100755.47;;;15.92;100.00
30636;BME280;17400;52.392;9.750;2022-10-16T08:11:45;100757.25;;;15.98;100.00
30636;BME280;17400;52.392;9.750;2022-10-16T08:14:12;100763.94;;;16.02;100.00
30636;BME280;17400;52.392;9.750;2022-10-16T08:16:40;100773.34;;;16.06;100.00
30636;BME280;17400;52.392;9.750;2022-10-16T08:19:08;100779.03;;;16.16;100.00
30636;BME280;17400;52.392;9.750;2022-10-16T08:21:35;100773.13;;;16.20;100.00
30636;BME280;17400;52.392;9.750;2022-10-16T08:24:04;100772.66;;;16.23;100.00
30636;BME280;17400;52.392;9.750;2022-10-16T08:26:33;100769.06;;;16.10;100.00
30636;BME280;17400;52.392;9.750;2022-10-16T08:29:00;100778.59;;;16.20;100.00
30636;BME280;17400;52.392;9.750;2022-10-16T08:31:28;100774.19;;;16.19;100.00
30636;BME280;17400;52.392;9.750;2022-10-16T08:33:56;100778.72;;;16.25;100.00
30636;BME280;17400;52.392;9.750;2022-10-16T08:36:23;100782.53;;;16.24;100.00
30636;BME280;17400;52.392;9.750;2022-10-16T08:38:51;100777.66;;;16.26;100.00
30636;BME280;17400;52.392;9.750;2022-10-16T08:44:34;100781.53;;;16.48;100.00
30636;BME280;17400;52.392;9.750;2022-10-16T08:47:12;100789.94;;;16.47;100.00
30636;BME280;17400;52.392;9.750;2022-10-16T08:49:43;100794.47;;;16.53;100.00
30636;BME280;17400;52.392;9.750;2022-10-16T08:52:20;100796.84;;;16.61;100.00
30636;BME280;17400;52.392;9.750;2022-10-16T08:54:55;100795.09;;;16.67;100.00
30636;BME280;17400;52.392;9.750;2022-10-16T08:57:25;100789.75;;;16.72;100.00
30636;BME280;17400;52.392;9.750;2022-10-16T08:59:59;100805.19;;;16.78;100.00
30636;BME280;17400;52.392;9.750;2022-10-16T09:02:31;100799.84;;;16.83;100.00
30636;BME280;17400;52.392;9.750;2022-10-16T09:05:20;100797.34;;;16.82;100.00
30636;BME280;17400;52.392;9.750;2022-10-16T09:07:57;100811.56;;;16.91;100.00
30636;BME280;17400;52.392;9.750;2022-10-16T09:10:38;100813.06;;;16.98;100.00
30636;BME280;17400;52.392;9.750;2022-10-16T09:13:15;100807.72;;;17.04;100.00
30636;BME280;17400;52.392;9.750;2022-10-16T09:15:53;100810.72;;;17.02;100.00
30636;BME280;17400;52.392;9.750;2022-10-16T09:18:29;100813.69;;;17.12;100.00
30636;BME280;17400;52.392;9.750;2022-10-16T09:21:06;100814.38;;;17.08;100.00
30636;BME280;17400;52.392;9.750;2022-10-16T09:23:37;100824.03;;;17.10;100.00
30636;BME280;17400;52.392;9.750;2022-10-16T09:26:09;100823.69;;;17.07;100.00
30636;BME280;17400;52.392;9.750;2022-10-16T09:28:39;100828.19;;;17.13;100.00
30636;BME280;17400;52.392;9.750;2022-10-16T09:31:14;100835.19;;;17.21;100.00
30636;BME280;17400;52.392;9.750;2022-10-16T09:33:45;100845.19;;;17.27;100.00
30636;BME280;17400;52.392;9.750;2022-10-16T09:36:14;100834.00;;;17.28;100.00
30636;BME280;17400;52.392;9.750;2022-10-16T09:38:42;100846.88;;;17.28;100.00
30636;BME280;17400;52.392;9.750;2022-10-16T09:41:21;100842.81;;;17.30;100.00
30636;BME280;17400;52.392;9.750;2022-10-16T09:43:53;100837.81;;;17.27;100.00
30636;BME280;17400;52.392;9.750;2022-10-16T09:46:26;100846.13;;;17.32;100.00
30636;BME280;17400;52.392;9.750;2022-10-16T09:48:57;100856.97;;;17.39;100.00
30636;BME280;17400;52.392;9.750;2022-10-16T09:51:27;100852.56;;;17.38;100.00
30636;BME280;17400;52.392;9.750;2022-10-16T09:53:57;100853.16;;;17.40;100.00
30636;BME280;17400;52.392;9.750;2022-10-16T09:56:27;100855.16;;;17.45;100.00
30636;BME280;17400;52.392;9.750;2022-10-16T09:58:57;100857.56;;;17.53;100.00
30636;BME280;17400;52.392;9.750;2022-10-16T10:01:30;100869.81;;;17.51;100.00
30636;BME280;17400;52.392;9.750;2022-10-16T10:03:58;100860.88;;;17.55;100.00
30636;BME280;17400;52.392;9.750;2022-10-16T10:06:31;100854.78;;;17.65;100.00
30636;BME280;17400;52.392;9.750;2022-10-16T10:09:06;100869.53;;;17.76;100.00
30636;BME280;17400;52.392;9.750;2022-10-16T10:11:44;100870.09;;;17.78;100.00
30636;BME280;17400;52.392;9.750;2022-10-16T10:14:17;100881.78;;;17.73;100.00
30636;BME280;17400;52.392;9.750;2022-10-16T10:16:47;100882.03;;;17.72;100.00
30636;BME280;17400;52.392;9.750;2022-10-16T10:19:17;100874.75;;;17.77;100.00
30636;BME280;17400;52.392;9.750;2022-10-16T10:21:46;100885.59;;;17.72;100.00
30636;BME280;17400;52.392;9.750;2022-10-16T10:24:16;100891.59;;;17.57;100.00
30636;BME280;17400;52.392;9.750;2022-10-16T10:26:49;100886.81;;;17.64;100.00
30636;BME280;17400;52.392;9.750;2022-10-16T10:32:19;100892.16;;;17.71;98.32
30636;BME280;17400;52.392;9.750;2022-10-16T10:35:13;100905.72;;;17.66;98.69
30636;BME280;17400;52.392;9.750;2022-10-16T10:38:00;100897.63;;;17.71;99.12
30636;BME280;17400;52.392;9.750;2022-10-16T10:40:39;100899.66;;;17.76;97.40
30636;BME280;17400;52.392;9.750;2022-10-16T10:43:19;100902.97;;;17.78;97.28
30636;BME280;17400;52.392;9.750;2022-10-16T10:45:52;100912.28;;;17.77;96.85
30636;BME280;17400;52.392;9.750;2022-10-16T10:48:47;100914.78;;;17.67;96.64
30636;BME280;17400;52.392;9.750;2022-10-16T10:51:26;100912.28;;;17.65;98.62
30636;BME280;17400;52.392;9.750;2022-10-16T10:54:03;100912.03;;;17.67;97.99
30636;BME280;17400;52.392;9.750;2022-10-16T10:56:43;100913.84;;;17.73;97.44
30636;BME280;17400;52.392;9.750;2022-10-16T10:59:32;100908.94;;;17.75;96.16
30636;BME280;17400;52.392;9.750;2022-10-16T11:02:10;100898.81;;;17.75;95.58
30636;BME280;17400;52.392;9.750;2022-10-16T11:04:54;100908.94;;;17.75;93.94
30636;BME280;17400;52.392;9.750;2022-10-16T11:07:28;100912.41;;;17.70;93.11
30636;BME280;17400;52.392;9.750;2022-10-16T11:10:01;100910.50;;;17.71;92.76
30636;BME280;17400;52.392;9.750;2022-10-16T11:12:32;100909.06;;;17.68;93.41
30636;BME280;17400;52.392;9.750;2022-10-16T11:15:07;100912.72;;;17.74;92.93
30636;BME280;17400;52.392;9.750;2022-10-16T11:17:40;100917.50;;;17.78;92.62
30636;BME280;17400;52.392;9.750;2022-10-16T11:20:15;100916.53;;;17.85;92.17
30636;BME280;17400;52.392;9.750;2022-10-16T11:22:48;100922.72;;;17.92;92.07
30636;BME280;17400;52.392;9.750;2022-10-16T11:25:20;100912.72;;;17.97;91.12
30636;BME280;17400;52.392;9.750;2022-10-16T11:27:52;100907.59;;;18.01;91.68
30636;BME280;17400;52.392;9.750;2022-10-16T11:30:23;100921.41;;;18.06;91.48
30636;BME280;17400;52.392;9.750;2022-10-16T11:33:04;100920.56;;;18.06;91.69
30636;BME280;17400;52.392;9.750;2022-10-16T11:35:47;100917.59;;;18.07;91.69
30636;BME280;17400;52.392;9.750;2022-10-16T11:38:25;100926.88;;;18.06;90.79
30636;BME280;17400;52.392;9.750;2022-10-16T11:41:00;100930.34;;;18.02;91.24
30636;BME280;17400;52.392;9.750;2022-10-16T11:43:33;100930.47;;;17.95;92.07
30636;BME280;17400;52.392;9.750;2022-10-16T11:46:08;100932.63;;;17.93;91.75
30636;BME280;17400;52.392;9.750;2022-10-16T11:48:45;100935.94;;;17.95;92.30
30636;BME280;17400;52.392;9.750;2022-10-16T11:51:26;100927.34;;;18.03;91.95
30636;BME280;17400;52.392;9.750;2022-10-16T11:54:03;100929.56;;;18.30;92.86
30636;BME280;17400;52.392;9.750;2022-10-16T11:56:36;100932.69;;;18.51;89.56
30636;BME280;17400;52.392;9.750;2022-10-16T11:59:08;100931.56;;;18.63;88.60
30636;BME280;17400;52.392;9.750;2022-10-16T12:01:46;100928.34;;;18.84;88.19
30636;BME280;17400;52.392;9.750;2022-10-16T12:04:21;100928.41;;;19.01;87.09
30636;BME280;17400;52.392;9.750;2022-10-16T12:07:00;100935.56;;;19.19;87.42
30636;BME280;17400;52.392;9.750;2022-10-16T12:09:31;100938.41;;;19.24;82.58
30636;BME280;17400;52.392;9.750;2022-10-16T12:12:00;100950.22;;;19.41;81.14
30636;BME280;17400;52.392;9.750;2022-10-16T12:14:36;100950.03;;;19.65;78.89
30636;BME280;17400;52.392;9.750;2022-10-16T12:17:26;100947.38;;;19.36;80.37
30636;BME280;17400;52.392;9.750;2022-10-16T12:19:59;100958.97;;;19.38;79.28
30636;BME280;17400;52.392;9.750;2022-10-16T12:22:30;100953.63;;;19.14;82.87
30636;BME280;17400;52.392;9.750;2022-10-16T12:25:05;100955.34;;;19.04;81.63
30636;BME280;17400;52.392;9.750;2022-10-16T12:27:34;100951.16;;;18.84;80.47
30636;BME280;17400;52.392;9.750;2022-10-16T12:30:06;100944.06;;;19.00;80.47
30636;BME280;17400;52.392;9.750;2022-10-16T12:32:43;100946.03;;;19.22;77.43
30636;BME280;17400;52.392;9.750;2022-10-16T12:35:24;100952.94;;;19.41;75.93
30636;BME280;17400;52.392;9.750;2022-10-16T12:38:14;100947.59;;;19.69;74.21
30636;BME280;17400;52.392;9.750;2022-10-16T12:41:01;100949.25;;;19.70;73.01
30636;BME280;17400;52.392;9.750;2022-10-16T12:43:54;100961.91;;;19.88;72.63
30636;BME280;17400;52.392;9.750;2022-10-16T12:46:44;100954.75;;;20.09;73.18
30636;BME280;17400;52.392;9.750;2022-10-16T12:49:36;100956.31;;;20.22;69.39
30636;BME280;17400;52.392;9.750;2022-10-16T12:52:37;100965.69;;;20.26;68.57
30636;BME280;17400;52.392;9.750;2022-10-16T12:55:21;100962.16;;;20.30;68.50
30636;BME280;17400;52.392;9.750;2022-10-16T12:58:16;100961.16;;;20.37;70.32
30636;BME280;17400;52.392;9.750;2022-10-16T13:01:32;100963.38;;;20.40;72.00
30636;BME280;17400;52.392;9.750;2022-10-16T13:04:34;100976.16;;;20.51;71.55
30636;BME280;17400;52.392;9.750;2022-10-16T13:07:20;100972.41;;;20.35;70.77
30636;BME280;17400;52.392;9.750;2022-10-16T13:10:03;100976.84;;;20.36;67.99
30636;BME280;17400;52.392;9.750;2022-10-16T13:12:58;100993.81;;;20.33;67.50